sensor_id;sensor_type;location;lat;lon;timestamp;pressure;altitude;pressure_sealevel;temperature;humidity
33845;BME280;20145;43.118;25.694;2023-01-29T00:01:27;99754.03;;;2.63;97.68
33845;BME280;20145;43.118;25.694;2023-01-29T00:03:54;99753.78;;;2.54;98.26
33845;BME280;20145;43.118;25.694;2023-01-29T00:06:20;99754.47;;;2.47;100.00
33845;BME280;20145;43.118;25.694;2023-01-29T00:08:47;99734.94;;;2.48;99.51
33845;BME280;20145;43.118;25.694;2023-01-29T00:11:13;99757.78;;;2.44;99.15
33845;BME280;20145;43.118;25.694;2023-01-29T00:13:38;99738.59;;;2.26;99.85
33845;BME280;20145;43.118;25.694;2023-01-29T00:16:04;99755.81;;;2.34;100.00
33845;BME280;20145;43.118;25.694;2023-01-29T00:18:30;99751.84;;;2.45;100.00
33845;BME280;20145;43.118;25.694;2023-01-29T00:20:56;99753.81;;;2.56;99.47
33845;BME280;20145;43.118;25.694;2023-01-29T00:23:22;99762.44;;;2.61;98.71
33845;BME280;20145;43.118;25.694;2023-01-29T00:25:48;99760.00;;;2.65;99.44
33845;BME280;20145;43.118;25.694;2023-01-29T00:28:14;99767.78;;;2.70;98.38
33845;BME280;20145;43.118;25.694;2023-01-29T00:30:40;99767.28;;;2.85;98.14
33845;BME280;20145;43.118;25.694;2023-01-29T00:33:06;99773.13;;;2.81;98.54
33845;BME280;20145;43.118;25.694;2023-01-29T00:35:32;99764.56;;;2.77;98.41
33845;BME280;20145;43.118;25.694;2023-01-29T00:37:58;99770.19;;;2.65;97.94
33845;BME280;20145;43.118;25.694;2023-01-29T00:40:24;99763.97;;;2.54;98.01
33845;BME280;20145;43.118;25.694;2023-01-29T00:42:50;99767.84;;;2.40;97.99
33845;BME280;20145;43.118;25.694;2023-01-29T00:45:35;99766.22;;;2.43;99.41
33845;BME280;20145;43.118;25.694;2023-01-29T00:48:04;99720.34;;;2.09;99.16
33845;BME280;20145;43.118;25.694;2023-01-29T00:50:30;99766.06;;;2.37;99.95
33845;BME280;20145;43.118;25.694;2023-01-29T00:52:56;99766.03;;;2.36;99.49
33845;BME280;20145;43.118;25.694;2023-01-29T00:55:22;99757.63;;;2.38;99.56
33845;BME280;20145;43.118;25.694;2023-01-29T00:57:48;99766.06;;;2.37;99.61
33845;BME280;20145;43.118;25.694;2023-01-29T01:00:16;99760.19;;;2.38;100.00
33845;BME280;20145;43.118;25.694;2023-01-29T01:02:42;99761.81;;;2.36;99.48
33845;BME280;20145;43.118;25.694;2023-01-29T01:05:26;99771.31;;;2.43;99.35
33845;BME280;20145;43.118;25.694;2023-01-29T01:07:54;99762.13;;;2.49;99.34
33845;BME280;20145;43.118;25.694;2023-01-29T01:10:26;99770.94;;;2.61;99.61
33845;BME280;20145;43.118;25.694;2023-01-29T01:12:57;99770.25;;;2.68;98.81
33845;BME280;20145;43.118;25.694;2023-01-29T01:15:26;99762.03;;;2.79;98.67
33845;BME280;20145;43.118;25.694;2023-01-29T01:17:59;99770.44;;;2.75;98.12
33845;BME280;20145;43.118;25.694;2023-01-29T01:20:27;99770.59;;;2.82;98.10
33845;BME280;20145;43.118;25.694;2023-01-29T01:22:53;99772.56;;;2.93;96.99
33845;BME280;20145;43.118;25.694;2023-01-29T01:25:20;99778.59;;;2.96;97.50
33845;BME280;20145;43.118;25.694;2023-01-29T01:27:46;99782.06;;;2.98;97.30
33845;BME280;20145;43.118;25.694;2023-01-29T01:30:13;99781.91;;;2.92;96.76
33845;BME280;20145;43.118;25.694;2023-01-29T01:32:40;99777.66;;;2.93;97.20
33845;BME280;20145;43.118;25.694;2023-01-29T01:35:08;99775.91;;;2.90;97.20
33845;BME280;20145;43.118;25.694;2023-01-29T01:37:33;99784.59;;;2.98;96.80
33845;BME280;20145;43.118;25.694;2023-01-29T01:40:06;99783.94;;;3.05;96.74
33845;BME280;20145;43.118;25.694;2023-01-29T01:42:39;99778.16;;;3.12;96.37
33845;BME280;20145;43.118;25.694;2023-01-29T01:45:07;99777.47;;;3.20;96.40
33845;BME280;20145;43.118;25.694;2023-01-29T01:50:05;99775.84;;;3.22;96.45
33845;BME280;20145;43.118;25.694;2023-01-29T01:52:34;99773.28;;;3.22;96.75
33845;BME280;20145;43.118;25.694;2023-01-29T01:55:02;99783.50;;;3.23;95.42
33845;BME280;20145;43.118;25.694;2023-01-29T01:57:29;99774.16;;;3.24;95.69
33845;BME280;20145;43.118;25.694;2023-01-29T01:59:59;99782.75;;;3.27;95.56
33845;BME280;20145;43.118;25.694;2023-01-29T02:02:28;99773.41;;;3.28;95.78
33845;BME280;20145;43.118;25.694;2023-01-29T02:05:13;99773.44;;;3.29;95.81
33845;BME280;20145;43.118;25.694;2023-01-29T02:07:57;99770.94;;;3.31;95.13
33845;BME280;20145;43.118;25.694;2023-01-29T02:10:45;99772.69;;;3.33;95.21
33845;BME280;20145;43.118;25.694;2023-01-29T02:13:11;99784.41;;;3.25;95.43
33845;BME280;20145;43.118;25.694;2023-01-29T02:15:37;99778.44;;;3.25;95.85
33845;BME280;20145;43.118;25.694;2023-01-29T02:18:07;99780.94;;;3.23;95.91
33845;BME280;20145;43.118;25.694;2023-01-29T02:20:34;99768.97;;;3.19;97.02
33845;BME280;20145;43.118;25.694;2023-01-29T02:23:04;99775.72;;;3.19;96.63
33845;BME280;20145;43.118;25.694;2023-01-29T02:25:58;99778.13;;;3.11;97.30
33845;BME280;20145;43.118;25.694;2023-01-29T02:31:29;99780.41;;;3.00;96.48
33845;BME280;20145;43.118;25.694;2023-01-29T02:41:47;99784.41;;;2.90;97.73
33845;BME280;20145;43.118;25.694;2023-01-29T02:47:20;99787.94;;;2.96;98.43
33845;BME280;20145;43.118;25.694;2023-01-29T02:49:51;99793.16;;;3.00;98.80
33845;BME280;20145;43.118;25.694;2023-01-29T02:52:29;99785.53;;;3.02;98.66
33845;BME280;20145;43.118;25.694;2023-01-29T02:55:15;99789.75;;;3.00;98.35
33845;BME280;20145;43.118;25.694;2023-01-29T02:57:45;99785.53;;;3.02;98.27
33845;BME280;20145;43.118;25.694;2023-01-29T03:02:45;99795.06;;;3.09;98.08
33845;BME280;20145;43.118;25.694;2023-01-29T03:05:22;99790.88;;;3.11;96.98
33845;BME280;20145;43.118;25.694;2023-01-29T03:07:54;99795.91;;;3.09;97.03
33845;BME280;20145;43.118;25.694;2023-01-29T03:12:55;99796.56;;;3.01;97.77
33845;BME280;20145;43.118;25.694;2023-01-29T03:16:01;99808.59;;;3.06;97.07
33845;BME280;20145;43.118;25.694;2023-01-29T03:18:31;99804.84;;;2.94;97.20
33845;BME280;20145;43.118;25.694;2023-01-29T03:21:04;99810.06;;;2.97;97.94
33845;BME280;20145;43.118;25.694;2023-01-29T03:23:54;99808.38;;;2.97;96.94
33845;BME280;20145;43.118;25.694;2023-01-29T03:26:39;99811.78;;;2.99;97.87
33845;BME280;20145;43.118;25.694;2023-01-29T03:29:25;99817.72;;;2.98;98.03
33845;BME280;20145;43.118;25.694;2023-01-29T03:32:10;99816.03;;;2.99;97.85
33845;BME280;20145;43.118;25.694;2023-01-29T03:34:41;99809.31;;;3.01;98.03
33845;BME280;20145;43.118;25.694;2023-01-29T03:37:32;99807.50;;;2.97;97.41
33845;BME280;20145;43.118;25.694;2023-01-29T03:40:05;99814.31;;;2.98;97.42
33845;BME280;20145;43.118;25.694;2023-01-29T03:42:54;99816.88;;;2.98;97.61
33845;BME280;20145;43.118;25.694;2023-01-29T03:46:24;99813.41;;;2.96;96.38
33845;BME280;20145;43.118;25.694;2023-01-29T03:48:38;99817.44;;;2.87;97.03
33845;BME280;20145;43.118;25.694;2023-01-29T03:51:26;99818.41;;;2.91;96.76
33845;BME280;20145;43.118;25.694;2023-01-29T03:54:06;99820.84;;;2.86;97.56
33845;BME280;20145;43.118;25.694;2023-01-29T03:57:03;99812.25;;;2.83;97.05
33845;BME280;20145;43.118;25.694;2023-01-29T04:02:04;99810.50;;;2.80;97.11
33845;BME280;20145;43.118;25.694;2023-01-29T04:04:33;99812.41;;;2.89;97.95
33845;BME280;20145;43.118;25.694;2023-01-29T04:07:12;99815.75;;;2.88;98.18
33845;BME280;20145;43.118;25.694;2023-01-29T04:09:45;99811.56;;;2.88;97.89
33845;BME280;20145;43.118;25.694;2023-01-29T04:12:13;99816.59;;;2.87;97.32
33845;BME280;20145;43.118;25.694;2023-01-29T04:14:40;99810.41;;;2.77;96.79
33845;BME280;20145;43.118;25.694;2023-01-29T04:17:13;99805.28;;;2.76;97.09
33845;BME280;20145;43.118;25.694;2023-01-29T04:19:40;99819.81;;;2.80;97.17
33845;BME280;20145;43.118;25.694;2023-01-29T04:22:12;99820.69;;;2.80;98.36
33845;BME280;20145;43.118;25.694;2023-01-29T04:24:41;99817.25;;;2.80;98.08
33845;BME280;20145;43.118;25.694;2023-01-29T04:27:37;99824.25;;;2.87;97.85
33845;BME280;20145;43.118;25.694;2023-01-29T04:30:27;99803.56;;;2.75;96.99
33845;BME280;20145;43.118;25.694;2023-01-29T04:33:13;99824.25;;;2.87;97.12
33845;BME280;20145;43.118;25.694;2023-01-29T04:38:56;99828.56;;;2.89;97.38
33845;BME280;20145;43.118;25.694;2023-01-29T04:41:37;99832.09;;;2.95;97.47
33845;BME280;20145;43.118;25.694;2023-01-29T04:44:17;99834.63;;;2.95;97.39
33845;BME280;20145;43.118;25.694;2023-01-29T04:49:33;99829.63;;;2.98;97.75
33845;BME280;20145;43.118;25.694;2023-01-29T04:57:08;99840.72;;;3.00;97.75
33845;BME280;20145;43.118;25.694;2023-01-29T04:59:49;99833.78;;;2.94;97.01
33845;BME280;20145;43.118;25.694;2023-01-29T05:02:17;99839.66;;;2.92;97.17
33845;BME280;20145;43.118;25.694;2023-01-29T05:04:44;99847.41;;;2.96;98.24
33845;BME280;20145;43.118;25.694;2023-01-29T05:07:13;99844.06;;;2.99;98.25
33845;BME280;20145;43.118;25.694;2023-01-29T05:09:41;99834.66;;;2.96;98.05
33845;BME280;20145;43.118;25.694;2023-01-29T05:12:10;99845.84;;;3.01;97.17
33845;BME280;20145;43.118;25.694;2023-01-29T05:14:38;99855.03;;;2.63;98.34
33845;BME280;20145;43.118;25.694;2023-01-29T05:17:11;99853.47;;;2.68;97.65
33845;BME280;20145;43.118;25.694;2023-01-29T05:19:38;99851.53;;;2.59;97.26
33845;BME280;20145;43.118;25.694;2023-01-29T05:22:04;99847.28;;;2.58;99.08
33845;BME280;20145;43.118;25.694;2023-01-29T05:24:30;99850.47;;;2.51;98.99
33845;BME280;20145;43.118;25.694;2023-01-29T05:26:56;99850.53;;;2.53;98.43
33845;BME280;20145;43.118;25.694;2023-01-29T05:29:44;99856.69;;;2.31;98.51
33845;BME280;20145;43.118;25.694;2023-01-29T05:32:10;99862.59;;;2.30;100.00
33845;BME280;20145;43.118;25.694;2023-01-29T05:34:36;99862.56;;;2.28;99.25
33845;BME280;20145;43.118;25.694;2023-01-29T05:37:02;99850.47;;;2.21;99.20
33845;BME280;20145;43.118;25.694;2023-01-29T05:39:28;99862.28;;;2.19;99.80
33845;BME280;20145;43.118;25.694;2023-01-29T05:41:53;99862.97;;;2.13;99.66
33845;BME280;20145;43.118;25.694;2023-01-29T05:44:19;99872.94;;;2.06;99.85
33845;BME280;20145;43.118;25.694;2023-01-29T05:46:45;99881.13;;;1.95;100.00
33845;BME280;20145;43.118;25.694;2023-01-29T05:49:10;99882.56;;;1.87;100.00
33845;BME280;20145;43.118;25.694;2023-01-29T05:51:36;99883.38;;;1.86;100.00
33845;BME280;20145;43.118;25.694;2023-01-29T05:54:02;99891.72;;;1.82;100.00
33845;BME280;20145;43.118;25.694;2023-01-29T05:56:27;99897.97;;;1.92;100.00
33845;BME280;20145;43.118;25.694;2023-01-29T05:58:53;99897.16;;;1.93;100.00
33845;BME280;20145;43.118;25.694;2023-01-29T06:01:21;99901.38;;;1.92;100.00
33845;BME280;20145;43.118;25.694;2023-01-29T06:03:47;99910.28;;;1.78;100.00
33845;BME280;20145;43.118;25.694;2023-01-29T06:06:13;99915.16;;;1.72;100.00
33845;BME280;20145;43.118;25.694;2023-01-29T06:08:39;99912.84;;;1.79;100.00
33845;BME280;20145;43.118;25.694;2023-01-29T06:11:09;99910.97;;;1.74;100.00
33845;BME280;20145;43.118;25.694;2023-01-29T06:13:36;99919.81;;;1.58;100.00
33845;BME280;20145;43.118;25.694;2023-01-29T06:16:06;99920.88;;;1.65;100.00
33845;BME280;20145;43.118;25.694;2023-01-29T06:18:32;99925.22;;;1.69;100.00
33845;BME280;20145;43.118;25.694;2023-01-29T06:21:01;99922.84;;;1.73;100.00
33845;BME280;20145;43.118;25.694;2023-01-29T06:23:28;99924.94;;;1.87;100.00
33845;BME280;20145;43.118;25.694;2023-01-29T06:26:01;99922.44;;;1.88;100.00
33845;BME280;20145;43.118;25.694;2023-01-29T06:28:27;99931.94;;;1.94;100.00
33845;BME280;20145;43.118;25.694;2023-01-29T06:30:56;99920.72;;;1.87;100.00
33845;BME280;20145;43.118;25.694;2023-01-29T06:33:21;99938.47;;;1.86;100.00
33845;BME280;20145;43.118;25.694;2023-01-29T06:35:47;99937.91;;;1.94;100.00
33845;BME280;20145;43.118;25.694;2023-01-29T06:38:12;99940.38;;;1.91;100.00
33845;BME280;20145;43.118;25.694;2023-01-29T06:40:38;99944.72;;;1.95;100.00
33845;BME280;20145;43.118;25.694;2023-01-29T06:43:03;99941.16;;;1.90;100.00
33845;BME280;20145;43.118;25.694;2023-01-29T06:45:29;99953.13;;;1.93;100.00
33845;BME280;20145;43.118;25.694;2023-01-29T06:47:55;99949.75;;;1.94;100.00
33845;BME280;20145;43.118;25.694;2023-01-29T06:50:20;99945.34;;;1.88;100.00
33845;BME280;20145;43.118;25.694;2023-01-29T06:52:46;99947.25;;;1.95;100.00
33845;BME280;20145;43.118;25.694;2023-01-29T06:55:11;99951.84;;;2.06;100.00
33845;BME280;20145;43.118;25.694;2023-01-29T06:57:37;99949.91;;;1.98;100.00
33845;BME280;20145;43.118;25.694;2023-01-29T07:00:03;99963.63;;;2.04;100.00
33845;BME280;20145;43.118;25.694;2023-01-29T07:02:30;99966.34;;;2.08;100.00
33845;BME280;20145;43.118;25.694;2023-01-29T07:04:56;99969.81;;;2.12;100.00
33845;BME280;20145;43.118;25.694;2023-01-29T07:07:21;99971.03;;;2.23;100.00
33845;BME280;20145;43.118;25.694;2023-01-29T07:09:47;99970.16;;;2.22;100.00
33845;BME280;20145;43.118;25.694;2023-01-29T07:12:12;99962.13;;;2.10;100.00
33845;BME280;20145;43.118;25.694;2023-01-29T07:14:38;99968.88;;;2.08;100.00
33845;BME280;20145;43.118;25.694;2023-01-29T07:17:03;99976.78;;;2.17;100.00
33845;BME280;20145;43.118;25.694;2023-01-29T07:19:29;99980.78;;;2.09;100.00
33845;BME280;20145;43.118;25.694;2023-01-29T07:21:54;99976.00;;;1.93;100.00
33845;BME280;20145;43.118;25.694;2023-01-29T07:24:20;99978.81;;;2.00;100.00
33845;BME280;20145;43.118;25.694;2023-01-29T07:26:45;99983.66;;;1.93;100.00
33845;BME280;20145;43.118;25.694;2023-01-29T07:29:11;99975.53;;;2.05;100.00
33845;BME280;20145;43.118;25.694;2023-01-29T07:31:36;99979.59;;;1.99;100.00
33845;BME280;20145;43.118;25.694;2023-01-29T07:34:02;99974.56;;;1.74;100.00
33845;BME280;20145;43.118;25.694;2023-01-29T07:36:28;99974.03;;;1.84;100.00
33845;BME280;20145;43.118;25.694;2023-01-29T07:38:54;99978.41;;;1.88;100.00
33845;BME280;20145;43.118;25.694;2023-01-29T07:41:19;99984.97;;;1.82;100.00
33845;BME280;20145;43.118;25.694;2023-01-29T07:43:45;99984.88;;;1.78;100.00
33845;BME280;20145;43.118;25.694;2023-01-29T07:46:11;99990.25;;;1.88;100.00
33845;BME280;20145;43.118;25.694;2023-01-29T07:48:36;99986.97;;;1.90;100.00
33845;BME280;20145;43.118;25.694;2023-01-29T07:51:02;99995.69;;;1.98;100.00
33845;BME280;20145;43.118;25.694;2023-01-29T07:53:28;99999.22;;;1.76;100.00
33845;BME280;20145;43.118;25.694;2023-01-29T07:55:54;100001.56;;;1.70;100.00
33845;BME280;20145;43.118;25.694;2023-01-29T07:58:20;99998.53;;;1.81;100.00
33845;BME280;20145;43.118;25.694;2023-01-29T08:00:45;99972.69;;;1.68;100.00
33845;BME280;20145;43.118;25.694;2023-01-29T08:03:14;100001.28;;;1.87;100.00
33845;BME280;20145;43.118;25.694;2023-01-29T08:05:41;100006.66;;;1.70;100.00
33845;BME280;20145;43.118;25.694;2023-01-29T08:08:07;100011.94;;;1.76;100.00
33845;BME280;20145;43.118;25.694;2023-01-29T08:10:34;100006.25;;;1.84;100.00
33845;BME280;20145;43.118;25.694;2023-01-29T08:13:00;100012.13;;;1.83;100.00
33845;BME280;20145;43.118;25.694;2023-01-29T08:15:27;100018.44;;;1.94;100.00
33845;BME280;20145;43.118;25.694;2023-01-29T08:17:52;100015.28;;;2.01;100.00
33845;BME280;20145;43.118;25.694;2023-01-29T08:20:19;100018.00;;;2.06;100.00
33845;BME280;20145;43.118;25.694;2023-01-29T08:22:45;100003.41;;;2.00;100.00
33845;BME280;20145;43.118;25.694;2023-01-29T08:25:11;100018.69;;;2.01;100.00
33845;BME280;20145;43.118;25.694;2023-01-29T08:27:37;100024.88;;;1.83;100.00
33845;BME280;20145;43.118;25.694;2023-01-29T08:30:04;100021.44;;;1.81;100.00
33845;BME280;20145;43.118;25.694;2023-01-29T08:32:30;100023.50;;;1.92;100.00
33845;BME280;20145;43.118;25.694;2023-01-29T08:34:55;100025.44;;;1.74;100.00
33845;BME280;20145;43.118;25.694;2023-01-29T08:37:21;100027.56;;;1.87;100.00
33845;BME280;20145;43.118;25.694;2023-01-29T08:39:46;100037.28;;;1.73;100.00
33845;BME280;20145;43.118;25.694;2023-01-29T08:42:12;100039.47;;;1.88;100.00
33845;BME280;20145;43.118;25.694;2023-01-29T08:44:38;100042.72;;;1.84;100.00
33845;BME280;20145;43.118;25.694;2023-01-29T08:47:04;100047.53;;;2.02;100.00
33845;BME280;20145;43.118;25.694;2023-01-29T08:49:29;100025.72;;;2.09;100.00
33845;BME280;20145;43.118;25.694;2023-01-29T08:51:55;100035.59;;;2.27;100.00
33845;BME280;20145;43.118;25.694;2023-01-29T08:54:22;100030.09;;;2.40;100.00
33845;BME280;20145;43.118;25.694;2023-01-29T08:56:48;100038.88;;;2.50;100.00
33845;BME280;20145;43.118;25.694;2023-01-29T08:59:14;100036.63;;;2.60;100.00
33845;BME280;20145;43.118;25.694;2023-01-29T09:01:40;100036.84;;;2.66;100.00
33845;BME280;20145;43.118;25.694;2023-01-29T09:04:05;100042.53;;;2.58;100.00
33845;BME280;20145;43.118;25.694;2023-01-29T09:06:31;100042.13;;;2.74;100.00
33845;BME280;20145;43.118;25.694;2023-01-29T09:08:57;100038.91;;;2.80;100.00
33845;BME280;20145;43.118;25.694;2023-01-29T09:11:22;100039.16;;;2.59;100.00
33845;BME280;20145;43.118;25.694;2023-01-29T09:13:48;100034.25;;;2.65;100.00
33845;BME280;20145;43.118;25.694;2023-01-29T09:16:14;100037.88;;;2.73;100.00
33845;BME280;20145;43.118;25.694;2023-01-29T09:18:39;100029.63;;;2.82;100.00
33845;BME280;20145;43.118;25.694;2023-01-29T09:21:05;100036.19;;;3.02;100.00
33845;BME280;20145;43.118;25.694;2023-01-29T09:23:31;100028.66;;;3.07;100.00
33845;BME280;20145;43.118;25.694;2023-01-29T09:25:57;100029.78;;;3.17;99.47
33845;BME280;20145;43.118;25.694;2023-01-29T09:28:23;100031.75;;;3.27;99.34
33845;BME280;20145;43.118;25.694;2023-01-29T09:30:49;100027.47;;;3.24;98.51
33845;BME280;20145;43.118;25.694;2023-01-29T09:33:15;100021.22;;;3.15;98.33
33845;BME280;20145;43.118;25.694;2023-01-29T09:35:42;100030.03;;;3.26;98.14
33845;BME280;20145;43.118;25.694;2023-01-29T09:38:09;100025.09;;;3.32;97.43
33845;BME280;20145;43.118;25.694;2023-01-29T09:48:46;100021.41;;;3.54;96.75
33845;BME280;20145;43.118;25.694;2023-01-29T09:51:27;100011.91;;;3.47;96.75
33845;BME280;20145;43.118;25.694;2023-01-29T09:54:15;100011.97;;;3.50;96.99
33845;BME280;20145;43.118;25.694;2023-01-29T09:56:44;99994.84;;;3.44;96.53
33845;BME280;20145;43.118;25.694;2023-01-29T09:59:11;100011.00;;;3.45;96.78
33845;BME280;20145;43.118;25.694;2023-01-29T10:25:41;99980.31;;;2.80;99.32
33845;BME280;20145;43.118;25.694;2023-01-29T10:31:29;99992.09;;;3.06;100.00
33845;BME280;20145;43.118;25.694;2023-01-29T10:34:00;99988.16;;;2.86;99.87
33845;BME280;20145;43.118;25.694;2023-01-29T10:36:35;99991.56;;;2.86;100.00
33845;BME280;20145;43.118;25.694;2023-01-29T10:39:03;99990.63;;;2.83;100.00
33845;BME280;20145;43.118;25.694;2023-01-29T10:45:25;99982.97;;;2.83;100.00
33845;BME280;20145;43.118;25.694;2023-01-29T10:53:14;99965.91;;;3.10;100.00
33845;BME280;20145;43.118;25.694;2023-01-29T10:55:58;99961.00;;;2.88;100.00
33845;BME280;20145;43.118;25.694;2023-01-29T11:01:10;99960.88;;;3.13;100.00
33845;BME280;20145;43.118;25.694;2023-01-29T11:03:36;99964.63;;;2.96;100.00
33845;BME280;20145;43.118;25.694;2023-01-29T11:11:33;99955.66;;;3.42;100.00
33845;BME280;20145;43.118;25.694;2023-01-29T11:14:08;99956.25;;;3.32;99.57
33845;BME280;20145;43.118;25.694;2023-01-29T11:16:44;99950.72;;;3.48;99.89
33845;BME280;20145;43.118;25.694;2023-01-29T11:19:11;99950.06;;;3.55;98.58
33845;BME280;20145;43.118;25.694;2023-01-29T11:24:41;99945.69;;;3.51;98.83
33845;BME280;20145;43.118;25.694;2023-01-29T11:27:22;99946.81;;;3.28;98.71
33845;BME280;20145;43.118;25.694;2023-01-29T11:29:53;99937.31;;;3.24;99.08
33845;BME280;20145;43.118;25.694;2023-01-29T11:35:03;99931.44;;;3.25;99.82
33845;BME280;20145;43.118;25.694;2023-01-29T11:37:38;99931.38;;;3.23;100.00
33845;BME280;20145;43.118;25.694;2023-01-29T11:42:49;99932.50;;;3.33;99.65
33845;BME280;20145;43.118;25.694;2023-01-29T11:47:53;99924.06;;;3.37;99.04
33845;BME280;20145;43.118;25.694;2023-01-29T11:50:24;99934.31;;;3.39;99.74
33845;BME280;20145;43.118;25.694;2023-01-29T11:52:50;99929.31;;;3.43;98.61
33845;BME280;20145;43.118;25.694;2023-01-29T11:55:52;99930.22;;;3.45;99.78
33845;BME280;20145;43.118;25.694;2023-01-29T11:58:18;99922.38;;;3.38;99.13
33845;BME280;20145;43.118;25.694;2023-01-29T12:00:50;99920.00;;;3.44;99.34
33845;BME280;20145;43.118;25.694;2023-01-29T12:06:05;99908.97;;;3.45;98.96
33845;BME280;20145;43.118;25.694;2023-01-29T12:08:35;99912.19;;;3.38;99.64
33845;BME280;20145;43.118;25.694;2023-01-29T12:11:27;99915.34;;;3.27;100.00
33845;BME280;20145;43.118;25.694;2023-01-29T12:13:54;99916.06;;;3.22;100.00
33845;BME280;20145;43.118;25.694;2023-01-29T12:16:43;99911.75;;;3.21;100.00
33845;BME280;20145;43.118;25.694;2023-01-29T12:22:13;99919.41;;;3.21;100.00
33845;BME280;20145;43.118;25.694;2023-01-29T12:24:49;99914.06;;;3.11;100.00
33845;BME280;20145;43.118;25.694;2023-01-29T12:27:25;99922.19;;;2.97;100.00
33845;BME280;20145;43.118;25.694;2023-01-29T12:29:55;99921.66;;;3.10;100.00
33845;BME280;20145;43.118;25.694;2023-01-29T12:32:38;99925.47;;;2.93;100.00
33845;BME280;20145;43.118;25.694;2023-01-29T12:35:29;99920.44;;;2.96;100.00
33845;BME280;20145;43.118;25.694;2023-01-29T12:38:06;99922.28;;;3.00;100.00
33845;BME280;20145;43.118;25.694;2023-01-29T12:40:41;99911.16;;;2.98;100.00
33845;BME280;20145;43.118;25.694;2023-01-29T12:43:20;99921.72;;;3.11;100.00
33845;BME280;20145;43.118;25.694;2023-01-29T12:45:49;99924.81;;;3.00;100.00
33845;BME280;20145;43.118;25.694;2023-01-29T12:48:26;99926.00;;;2.81;100.00
33845;BME280;20145;43.118;25.694;2023-01-29T12:50:54;99918.38;;;2.82;100.00
33845;BME280;20145;43.118;25.694;2023-01-29T12:53:25;99931.47;;;2.95;100.00
33845;BME280;20145;43.118;25.694;2023-01-29T12:55:59;99934.34;;;3.07;100.00
33845;BME280;20145;43.118;25.694;2023-01-29T13:01:07;99935.03;;;3.00;100.00
33845;BME280;20145;43.118;25.694;2023-01-29T13:06:08;99935.47;;;3.18;100.00
33845;BME280;20145;43.118;25.694;2023-01-29T13:08:56;99937.72;;;3.06;100.00
33845;BME280;20145;43.118;25.694;2023-01-29T13:11:52;99937.03;;;3.13;100.00
33845;BME280;20145;43.118;25.694;2023-01-29T13:14:30;99934.06;;;3.28;100.00
33845;BME280;20145;43.118;25.694;2023-01-29T13:17:12;99935.75;;;3.29;100.00
33845;BME280;20145;43.118;25.694;2023-01-29T13:19:45;99938.25;;;3.26;100.00
33845;BME280;20145;43.118;25.694;2023-01-29T13:22:24;99936.25;;;3.47;100.00
33845;BME280;20145;43.118;25.694;2023-01-29T13:24:50;99943.19;;;3.53;100.00
33845;BME280;20145;43.118;25.694;2023-01-29T13:27:21;99935.69;;;3.59;99.30
33845;BME280;20145;43.118;25.694;2023-01-29T13:29:48;99932.41;;;3.65;99.69
33845;BME280;20145;43.118;25.694;2023-01-29T13:32:20;99922.28;;;3.68;99.25
33845;BME280;20145;43.118;25.694;2023-01-29T13:34:48;99929.13;;;3.70;97.80
33845;BME280;20145;43.118;25.694;2023-01-29T13:37:45;99905.03;;;3.57;97.86
33845;BME280;20145;43.118;25.694;2023-01-29T13:40:32;99931.81;;;3.75;98.19
33845;BME280;20145;43.118;25.694;2023-01-29T13:43:02;99937.66;;;3.71;97.73
33845;BME280;20145;43.118;25.694;2023-01-29T13:48:21;99942.19;;;3.48;97.50
33845;BME280;20145;43.118;25.694;2023-01-29T13:50:50;99943.84;;;3.46;98.83
33845;BME280;20145;43.118;25.694;2023-01-29T13:53:23;99942.47;;;3.25;99.39
33845;BME280;20145;43.118;25.694;2023-01-29T13:55:49;99952.69;;;3.25;99.26
33845;BME280;20145;43.118;25.694;2023-01-29T13:58:16;99950.84;;;3.21;99.29
33845;BME280;20145;43.118;25.694;2023-01-29T14:05:39;99955.50;;;3.36;99.54
33845;BME280;20145;43.118;25.694;2023-01-29T14:08:53;99956.28;;;3.33;98.54
33845;BME280;20145;43.118;25.694;2023-01-29T14:13:38;99947.22;;;3.11;99.50
33845;BME280;20145;43.118;25.694;2023-01-29T14:18:36;99952.53;;;3.19;99.31
33845;BME280;20145;43.118;25.694;2023-01-29T14:23:52;99948.84;;;3.08;100.00
33845;BME280;20145;43.118;25.694;2023-01-29T14:26:28;99947.69;;;2.97;100.00
33845;BME280;20145;43.118;25.694;2023-01-29T14:31:56;99947.78;;;3.33;100.00
33845;BME280;20145;43.118;25.694;2023-01-29T14:34:27;99943.81;;;3.44;100.00
33845;BME280;20145;43.118;25.694;2023-01-29T14:37:39;99951.28;;;3.37;100.00
33845;BME280;20145;43.118;25.694;2023-01-29T14:40:11;99947.44;;;3.21;99.94
33845;BME280;20145;43.118;25.694;2023-01-29T14:42:34;99958.63;;;3.24;100.00
33845;BME280;20145;43.118;25.694;2023-01-29T14:45:29;99961.53;;;3.40;100.00
33845;BME280;20145;43.118;25.694;2023-01-29T14:48:04;99958.41;;;3.17;100.00
33845;BME280;20145;43.118;25.694;2023-01-29T14:50:45;99964.72;;;3.31;100.00
33845;BME280;20145;43.118;25.694;2023-01-29T14:58:45;99965.91;;;3.44;99.19
33845;BME280;20145;43.118;25.694;2023-01-29T15:01:23;99962.66;;;3.49;99.94
33845;BME280;20145;43.118;25.694;2023-01-29T15:04:01;99974.72;;;3.55;99.68
33845;BME280;20145;43.118;25.694;2023-01-29T15:06:34;99972.09;;;3.53;98.53
33845;BME280;20145;43.118;25.694;2023-01-29T15:09:11;99969.53;;;3.20;99.24
33845;BME280;20145;43.118;25.694;2023-01-29T15:14:51;99971.44;;;3.27;99.55
33845;BME280;20145;43.118;25.694;2023-01-29T15:17:26;99968.19;;;3.33;99.32
33845;BME280;20145;43.118;25.694;2023-01-29T15:19:53;99971.03;;;3.44;99.37
33845;BME280;20145;43.118;25.694;2023-01-29T15:22:21;99978.91;;;3.54;99.51
33845;BME280;20145;43.118;25.694;2023-01-29T15:25:09;99965.56;;;3.63;98.65
33845;BME280;20145;43.118;25.694;2023-01-29T15:27:40;99969.06;;;3.68;98.84
33845;BME280;20145;43.118;25.694;2023-01-29T15:30:24;99971.78;;;3.74;99.25
33845;BME280;20145;43.118;25.694;2023-01-29T15:32:51;99982.13;;;3.80;98.95